createdAt,value
2017-03-09T00:00:02.663Z,99.99
2017-03-09T00:00:30.659Z,99.99
2017-03-09T00:00:58.871Z,99.99
2017-03-09T00:01:27.049Z,99.99
2017-03-09T00:01:54.983Z,99.99
2017-03-09T00:02:22.970Z,99.99
2017-03-09T00:02:51.152Z,99.99
2017-03-09T00:03:19.324Z,99.99
2017-03-09T00:03:47.575Z,99.99
2017-03-09T00:04:15.866Z,99.99
2017-03-09T00:04:44.279Z,99.99
2017-03-09T00:05:12.423Z,99.99
2017-03-09T00:05:40.646Z,99.99
2017-03-09T00:06:08.808Z,99.99
2017-03-09T00:06:36.931Z,99.99
2017-03-09T00:07:05.304Z,99.99
2017-03-09T00:07:33.522Z,99.99
2017-03-09T00:08:01.761Z,99.99
2017-03-09T00:08:29.927Z,99.99
2017-03-09T00:08:58.128Z,99.99
2017-03-09T00:09:26.459Z,99.99
2017-03-09T00:09:54.527Z,99.99
2017-03-09T00:10:22.781Z,99.99
2017-03-09T00:10:51.067Z,99.99
2017-03-09T00:11:19.160Z,99.99
2017-03-09T00:11:47.397Z,99.99
2017-03-09T00:12:15.627Z,99.99
2017-03-09T00:12:43.778Z,99.99
2017-03-09T00:13:11.910Z,99.99
2017-03-09T00:13:40.097Z,99.99
2017-03-09T00:14:08.237Z,99.99
2017-03-09T00:14:36.306Z,99.99
2017-03-09T00:15:04.377Z,99.99
2017-03-09T00:15:32.595Z,99.99
2017-03-09T00:16:00.663Z,99.99
2017-03-09T00:16:28.698Z,99.99
2017-03-09T00:16:56.848Z,99.99
2017-03-09T00:17:24.927Z,99.99
2017-03-09T00:17:53.145Z,99.99
2017-03-09T00:18:21.347Z,99.99
2017-03-09T00:18:49.414Z,99.99
2017-03-09T00:19:17.479Z,99.99
2017-03-09T00:19:45.829Z,99.99
2017-03-09T00:20:13.896Z,99.99
2017-03-09T00:20:41.965Z,99.99
2017-03-09T00:21:10.100Z,99.99
2017-03-09T00:21:38.340Z,99.99
2017-03-09T00:22:06.282Z,99.99
2017-03-09T00:22:34.384Z,99.99
2017-03-09T00:23:02.626Z,99.99
2017-03-09T00:23:30.686Z,99.99
2017-03-09T00:23:58.876Z,99.99
2017-03-09T00:24:27.100Z,99.99
2017-03-09T00:24:55.468Z,99.99
2017-03-09T00:25:23.665Z,99.99
2017-03-09T00:25:51.907Z,99.99
2017-03-09T00:26:20.123Z,99.99
2017-03-09T00:26:48.183Z,99.99
2017-03-09T00:27:16.387Z,99.99
2017-03-09T00:27:44.596Z,99.99
2017-03-09T00:28:12.812Z,99.99
2017-03-09T00:28:40.790Z,99.99
2017-03-09T00:29:08.974Z,99.99
2017-03-09T00:29:37.082Z,99.99
2017-03-09T00:30:05.234Z,99.99
2017-03-09T00:30:33.486Z,99.99
2017-03-09T00:31:01.626Z,99.99
2017-03-09T00:31:29.820Z,99.99
2017-03-09T00:31:57.915Z,99.99
2017-03-09T00:32:26.153Z,99.99
2017-03-09T00:32:54.375Z,99.99
2017-03-09T00:33:22.424Z,99.99
2017-03-09T00:33:50.561Z,99.99
2017-03-09T00:34:19.903Z,99.99
2017-03-09T00:34:47.990Z,99.99
2017-03-09T00:35:15.949Z,99.99
2017-03-09T00:35:43.934Z,99.99
2017-03-09T00:36:12.110Z,99.99
2017-03-09T00:36:40.224Z,99.99
2017-03-09T00:37:08.194Z,99.99
2017-03-09T00:37:36.304Z,99.99
2017-03-09T00:38:04.517Z,99.99
2017-03-09T00:38:32.685Z,99.99
2017-03-09T00:39:00.748Z,99.99
2017-03-09T00:39:28.833Z,99.99
2017-03-09T00:39:57.203Z,99.99
2017-03-09T00:40:25.328Z,99.99
2017-03-09T00:40:53.592Z,99.99
2017-03-09T00:41:21.743Z,99.99
2017-03-09T00:41:49.756Z,99.99
2017-03-09T00:42:17.916Z,99.99
2017-03-09T00:42:46.085Z,99.99
2017-03-09T00:43:14.253Z,99.99
2017-03-09T00:43:42.172Z,99.99
2017-03-09T00:44:10.436Z,99.99
2017-03-09T00:44:38.603Z,99.99
2017-03-09T00:45:06.832Z,99.99
2017-03-09T00:45:34.876Z,99.99
2017-03-09T00:46:03.090Z,99.99
2017-03-09T00:46:31.217Z,99.99
2017-03-09T00:46:59.264Z,99.99
2017-03-09T00:47:27.158Z,99.99
2017-03-09T00:47:55.251Z,99.99
2017-03-09T00:48:23.275Z,99.99
2017-03-09T00:48:51.421Z,99.99
2017-03-09T00:49:19.530Z,99.99
2017-03-09T00:49:47.717Z,99.99
2017-03-09T00:50:15.910Z,99.99
2017-03-09T00:50:44.172Z,99.99
2017-03-09T00:51:12.322Z,99.99
2017-03-09T00:51:40.471Z,99.99
2017-03-09T00:52:08.411Z,99.99
2017-03-09T00:52:36.591Z,99.99
2017-03-09T00:53:04.845Z,99.99
2017-03-09T00:53:32.823Z,99.99
2017-03-09T00:54:00.674Z,99.99
2017-03-09T00:54:28.821Z,99.99
2017-03-09T00:54:57.121Z,99.99
2017-03-09T00:55:25.386Z,99.99
2017-03-09T00:55:53.567Z,99.99
2017-03-09T00:56:21.741Z,99.99
2017-03-09T00:56:49.997Z,99.99
2017-03-09T00:57:17.943Z,99.99
2017-03-09T00:57:46.102Z,99.99
2017-03-09T00:58:14.363Z,99.99
2017-03-09T00:58:42.540Z,99.99
2017-03-09T00:59:10.540Z,99.99
2017-03-09T00:59:38.768Z,99.99
2017-03-09T01:00:07.022Z,99.99
2017-03-09T01:00:35.167Z,99.99
2017-03-09T01:01:03.189Z,99.99
2017-03-09T01:01:31.259Z,99.99
2017-03-09T01:01:59.402Z,99.99
2017-03-09T01:02:27.530Z,99.99
2017-03-09T01:02:55.791Z,99.99
2017-03-09T01:03:23.888Z,99.99
2017-03-09T01:03:52.029Z,99.99
2017-03-09T01:04:20.087Z,99.99
2017-03-09T01:04:48.184Z,99.99
2017-03-09T01:05:16.401Z,99.99
2017-03-09T01:05:44.442Z,99.99
2017-03-09T01:06:12.615Z,99.99
2017-03-09T01:06:40.678Z,99.99
2017-03-09T01:07:08.860Z,99.99
2017-03-09T01:07:37.073Z,99.99
2017-03-09T01:08:05.022Z,99.99
2017-03-09T01:08:33.472Z,99.99
2017-03-09T01:09:02.395Z,99.99
2017-03-09T01:09:30.507Z,99.99
2017-03-09T01:09:58.737Z,99.99
2017-03-09T01:10:26.902Z,99.99
2017-03-09T01:10:54.958Z,99.99
2017-03-09T01:11:23.136Z,99.99
2017-03-09T01:11:51.200Z,99.99
2017-03-09T01:12:19.393Z,99.99
2017-03-09T01:12:47.250Z,99.99
2017-03-09T01:13:16.289Z,99.99
2017-03-09T01:13:44.577Z,99.99
2017-03-09T01:14:12.689Z,99.99
2017-03-09T01:14:40.779Z,99.99
2017-03-09T01:15:09.176Z,99.99
2017-03-09T01:15:37.266Z,99.99
2017-03-09T01:16:05.473Z,99.99
2017-03-09T01:16:33.673Z,99.99
2017-03-09T01:17:01.850Z,99.99
2017-03-09T01:17:30.098Z,99.99
2017-03-09T01:17:58.444Z,99.99
2017-03-09T01:18:26.533Z,99.99
2017-03-09T01:18:54.646Z,99.99
2017-03-09T01:19:22.602Z,99.99
2017-03-09T01:19:51.186Z,99.99
2017-03-09T01:20:19.406Z,99.99
2017-03-09T01:20:47.568Z,99.99
2017-03-09T01:21:15.537Z,99.99
2017-03-09T01:21:43.704Z,99.99
2017-03-09T01:22:11.772Z,99.99
2017-03-09T01:22:39.964Z,99.99
2017-03-09T01:23:08.210Z,99.99
2017-03-09T01:23:36.277Z,99.99
2017-03-09T01:24:04.505Z,99.99
2017-03-09T01:24:32.651Z,99.99
2017-03-09T01:25:00.799Z,99.99
2017-03-09T01:25:29.085Z,99.99
2017-03-09T01:25:57.126Z,99.99
2017-03-09T01:26:25.344Z,99.99
2017-03-09T01:26:53.393Z,99.99
2017-03-09T01:27:21.542Z,99.99
2017-03-09T01:27:49.854Z,99.99
2017-03-09T01:28:18.113Z,99.99
2017-03-09T01:28:46.265Z,99.99
2017-03-09T01:29:14.384Z,99.99
2017-03-09T01:29:42.660Z,99.99
2017-03-09T01:30:10.898Z,99.99
2017-03-09T01:30:38.902Z,99.99
2017-03-09T01:31:06.995Z,99.99
2017-03-09T01:31:35.014Z,99.99
2017-03-09T01:32:03.218Z,99.99
2017-03-09T01:32:31.418Z,99.99
2017-03-09T01:32:59.491Z,99.99
2017-03-09T01:33:27.628Z,99.99
2017-03-09T01:33:55.819Z,99.99
2017-03-09T01:34:24.066Z,99.99
2017-03-09T01:34:52.706Z,99.99
2017-03-09T01:35:20.942Z,99.99
2017-03-09T01:35:49.121Z,99.99
2017-03-09T01:36:17.251Z,99.99
2017-03-09T01:36:45.367Z,99.99
2017-03-09T01:37:13.611Z,99.99
2017-03-09T01:37:41.771Z,99.99
2017-03-09T01:38:09.678Z,99.99
2017-03-09T01:38:37.817Z,99.99
2017-03-09T01:39:05.981Z,99.99
2017-03-09T01:39:34.345Z,99.99
2017-03-09T01:40:02.443Z,99.99
2017-03-09T01:40:30.529Z,99.99
2017-03-09T01:40:58.620Z,99.99
2017-03-09T01:41:26.763Z,99.99
2017-03-09T01:41:54.906Z,99.99
2017-03-09T01:42:22.958Z,99.99
2017-03-09T01:42:51.144Z,99.99
2017-03-09T01:43:19.203Z,99.99
2017-03-09T01:43:47.319Z,99.99
2017-03-09T01:44:15.484Z,99.99
2017-03-09T01:44:43.596Z,99.99
2017-03-09T01:45:11.784Z,99.99
2017-03-09T01:45:39.891Z,99.99
2017-03-09T01:46:08.207Z,99.99
2017-03-09T01:46:36.794Z,99.99
2017-03-09T01:47:04.858Z,99.99
2017-03-09T01:47:32.925Z,99.99
2017-03-09T01:48:01.438Z,99.99
2017-03-09T01:48:29.507Z,99.99
2017-03-09T01:48:57.748Z,99.99
2017-03-09T01:49:25.864Z,99.99
2017-03-09T01:49:54.035Z,99.99
2017-03-09T01:50:22.417Z,99.99
2017-03-09T01:50:50.599Z,99.99
2017-03-09T01:51:18.598Z,99.99
2017-03-09T01:51:46.562Z,99.99
2017-03-09T01:52:14.833Z,99.99
2017-03-09T01:52:42.899Z,99.99
2017-03-09T01:53:11.452Z,99.99
2017-03-09T01:53:39.565Z,99.99
2017-03-09T01:54:07.799Z,99.99
2017-03-09T01:54:35.985Z,99.99
2017-03-09T01:55:04.207Z,99.99
2017-03-09T01:55:32.472Z,99.99
2017-03-09T01:56:00.556Z,99.99
2017-03-09T01:56:28.808Z,99.99
2017-03-09T01:56:56.873Z,99.99
2017-03-09T01:57:25.178Z,99.99
2017-03-09T01:57:53.491Z,99.99
2017-03-09T01:58:21.606Z,99.99
2017-03-09T01:58:49.701Z,99.99
2017-03-09T01:59:17.823Z,99.99
2017-03-09T01:59:46.060Z,99.99
2017-03-09T02:00:14.213Z,99.99
2017-03-09T02:00:42.474Z,99.99
2017-03-09T02:01:10.610Z,99.99
2017-03-09T02:01:38.698Z,99.99
2017-03-09T02:02:06.854Z,99.99
2017-03-09T02:02:35.014Z,99.99
2017-03-09T02:03:03.204Z,99.99
2017-03-09T02:03:31.285Z,99.99
2017-03-09T02:03:59.369Z,99.99
2017-03-09T02:04:27.298Z,99.99
2017-03-09T02:04:55.516Z,99.99
2017-03-09T02:05:23.678Z,99.99
2017-03-09T02:05:51.820Z,99.99
2017-03-09T02:06:20.012Z,99.99
2017-03-09T02:06:48.158Z,99.99
2017-03-09T02:07:16.346Z,99.99
2017-03-09T02:07:44.621Z,99.99
2017-03-09T02:08:12.801Z,99.99
2017-03-09T02:08:41.023Z,99.99
2017-03-09T02:09:09.095Z,99.99
2017-03-09T02:09:37.392Z,99.99
2017-03-09T02:10:05.373Z,99.99
2017-03-09T02:10:33.410Z,99.99
2017-03-09T02:11:01.538Z,99.99
2017-03-09T02:11:29.574Z,99.99
2017-03-09T02:11:58.072Z,99.99
2017-03-09T02:12:26.164Z,99.99
2017-03-09T02:12:54.214Z,99.99
2017-03-09T02:13:22.340Z,99.99
2017-03-09T02:13:50.210Z,99.99
2017-03-09T02:14:18.426Z,99.99
2017-03-09T02:14:46.524Z,99.99
2017-03-09T02:15:14.629Z,99.99
2017-03-09T02:15:42.893Z,99.99
2017-03-09T02:16:10.920Z,99.99
2017-03-09T02:16:39.049Z,99.99
2017-03-09T02:17:07.258Z,99.99
2017-03-09T02:17:35.266Z,99.99
2017-03-09T02:18:03.504Z,99.99
2017-03-09T02:18:31.701Z,99.99
2017-03-09T02:18:59.772Z,99.99
2017-03-09T02:19:28.016Z,99.99
2017-03-09T02:19:56.137Z,99.99
2017-03-09T02:20:24.179Z,99.99
2017-03-09T02:20:52.533Z,99.99
2017-03-09T02:21:20.653Z,99.99
2017-03-09T02:21:49.086Z,99.99
2017-03-09T02:22:17.138Z,99.99
2017-03-09T02:22:45.444Z,99.99
2017-03-09T02:23:13.676Z,99.99
2017-03-09T02:23:41.864Z,99.99
2017-03-09T02:24:09.997Z,99.99
2017-03-09T02:24:38.035Z,99.99
2017-03-09T02:25:06.278Z,99.99
2017-03-09T02:25:34.434Z,99.99
2017-03-09T02:26:02.721Z,99.99
2017-03-09T02:26:30.966Z,99.99
2017-03-09T02:26:58.922Z,99.99
2017-03-09T02:27:27.076Z,99.99
2017-03-09T02:27:55.150Z,99.99
2017-03-09T02:28:23.312Z,99.99
2017-03-09T02:28:51.339Z,99.99
2017-03-09T02:29:19.425Z,99.99
2017-03-09T02:29:47.617Z,99.99
2017-03-09T02:30:15.663Z,99.99
2017-03-09T02:30:43.711Z,99.99
2017-03-09T02:31:12.204Z,99.99
2017-03-09T02:31:40.375Z,99.99
2017-03-09T02:32:08.759Z,99.99
2017-03-09T02:32:36.893Z,99.99
2017-03-09T02:33:05.118Z,99.99
2017-03-09T02:33:33.220Z,99.99
2017-03-09T02:34:01.438Z,99.99
2017-03-09T02:34:29.482Z,99.99
2017-03-09T02:34:57.728Z,99.99
2017-03-09T02:35:25.860Z,99.99
2017-03-09T02:35:53.993Z,99.99
2017-03-09T02:36:22.473Z,99.99
2017-03-09T02:36:50.650Z,99.99
2017-03-09T02:37:18.841Z,99.99
2017-03-09T02:37:46.898Z,99.99
2017-03-09T02:38:15.060Z,99.99
2017-03-09T02:38:43.143Z,99.99
2017-03-09T02:39:11.185Z,99.99
2017-03-09T02:39:39.311Z,99.99
2017-03-09T02:40:07.419Z,99.99
2017-03-09T02:40:35.588Z,99.99
2017-03-09T02:41:03.873Z,99.99
2017-03-09T02:41:31.933Z,99.99
2017-03-09T02:42:00.181Z,99.99
2017-03-09T02:42:28.389Z,99.99
2017-03-09T02:42:56.440Z,99.99
2017-03-09T02:43:24.571Z,99.99
2017-03-09T02:43:52.580Z,99.99
2017-03-09T02:44:20.655Z,99.99
2017-03-09T02:44:48.657Z,99.99
2017-03-09T02:45:16.697Z,99.99
2017-03-09T02:45:44.875Z,99.99
2017-03-09T02:46:13.437Z,99.99
2017-03-09T02:46:41.524Z,99.99
2017-03-09T02:47:09.722Z,99.99
2017-03-09T02:47:37.788Z,99.99
2017-03-09T02:48:05.969Z,99.99
2017-03-09T02:48:34.062Z,99.99
2017-03-09T02:49:02.145Z,99.99
2017-03-09T02:49:30.402Z,99.99
2017-03-09T02:49:58.607Z,99.99
2017-03-09T02:50:26.700Z,99.99
2017-03-09T02:50:54.821Z,99.99
2017-03-09T02:51:23.128Z,99.99
2017-03-09T02:51:51.265Z,99.99
2017-03-09T02:52:19.420Z,99.99
2017-03-09T02:52:47.684Z,99.99
2017-03-09T02:53:15.839Z,99.99
2017-03-09T02:53:43.839Z,99.99
2017-03-09T02:54:12.032Z,99.99
2017-03-09T02:54:40.051Z,99.99
2017-03-09T02:55:07.932Z,99.99
2017-03-09T02:55:36.128Z,99.99
2017-03-09T02:56:04.216Z,99.99
2017-03-09T02:56:32.688Z,99.99
2017-03-09T02:57:00.891Z,99.99
2017-03-09T02:57:28.963Z,99.99
2017-03-09T02:57:57.126Z,99.99
2017-03-09T02:58:25.300Z,99.99
2017-03-09T02:58:53.512Z,99.99
2017-03-09T02:59:21.633Z,99.99
2017-03-09T02:59:49.796Z,99.99
2017-03-09T03:00:18.033Z,99.99
2017-03-09T03:00:46.135Z,99.99
2017-03-09T03:01:14.284Z,99.99
2017-03-09T03:01:42.694Z,99.99
2017-03-09T03:02:10.702Z,99.99
2017-03-09T03:02:38.655Z,99.99
2017-03-09T03:03:06.937Z,99.99
2017-03-09T03:03:35.071Z,99.99
2017-03-09T03:04:03.287Z,99.99
2017-03-09T03:04:31.513Z,99.99
2017-03-09T03:04:59.687Z,99.99
2017-03-09T03:05:27.924Z,99.99
2017-03-09T03:05:56.150Z,99.99
2017-03-09T03:06:24.451Z,99.99
2017-03-09T03:06:52.519Z,99.99
2017-03-09T03:07:20.675Z,99.99
2017-03-09T03:07:48.770Z,99.99
2017-03-09T03:08:16.878Z,99.99
2017-03-09T03:08:45.130Z,99.99
2017-03-09T03:09:13.276Z,99.99
2017-03-09T03:09:41.395Z,99.99
2017-03-09T03:10:09.483Z,99.99
2017-03-09T03:10:37.382Z,99.99
2017-03-09T03:11:05.488Z,99.99
2017-03-09T03:11:33.728Z,99.99
2017-03-09T03:12:01.805Z,99.99
2017-03-09T03:12:30.062Z,99.99
2017-03-09T03:12:58.196Z,99.99
2017-03-09T03:13:26.268Z,99.99
2017-03-09T03:13:54.300Z,99.99
2017-03-09T03:14:22.510Z,99.99
2017-03-09T03:14:50.595Z,99.99
2017-03-09T03:15:18.839Z,99.99
2017-03-09T03:15:46.993Z,99.99
2017-03-09T03:16:15.065Z,99.99
2017-03-09T03:16:43.263Z,99.99
2017-03-09T03:17:11.277Z,99.99
2017-03-09T03:17:39.368Z,99.99
2017-03-09T03:18:07.502Z,99.99
2017-03-09T03:18:35.757Z,99.99
2017-03-09T03:19:03.900Z,99.99
2017-03-09T03:19:32.064Z,99.99
2017-03-09T03:20:00.037Z,99.99
2017-03-09T03:20:28.124Z,99.99
2017-03-09T03:20:56.136Z,99.99
2017-03-09T03:21:24.068Z,99.99
2017-03-09T03:21:52.551Z,99.93
2017-03-09T03:22:20.725Z,99.99
2017-03-09T03:22:48.871Z,99.79
2017-03-09T03:23:16.993Z,99.5
2017-03-09T03:23:45.017Z,99.98
2017-03-09T03:24:13.135Z,99.88
2017-03-09T03:24:41.389Z,99.99
2017-03-09T03:25:22.429Z,99.4
2017-03-09T03:25:50.600Z,99.88
2017-03-09T03:26:18.739Z,99.5
2017-03-09T03:26:46.936Z,99.4
2017-03-09T03:27:15.105Z,99.02
2017-03-09T03:27:43.268Z,99.69
2017-03-09T03:28:11.369Z,99.5
2017-03-09T03:28:39.492Z,99.99
2017-03-09T03:29:07.658Z,99.6
2017-03-09T03:29:35.690Z,99.5
2017-03-09T03:30:03.846Z,99.79
2017-03-09T03:30:31.894Z,99.74
2017-03-09T03:31:00.049Z,99.79
2017-03-09T03:31:28.232Z,99.45
2017-03-09T03:31:56.383Z,99.79
2017-03-09T03:32:24.441Z,99.69
2017-03-09T03:32:52.586Z,99.6
2017-03-09T03:33:20.564Z,99.88
2017-03-09T03:33:48.813Z,99.79
2017-03-09T03:34:17.088Z,99.88
2017-03-09T03:34:45.182Z,99.99
2017-03-09T03:35:13.251Z,99.93
2017-03-09T03:35:41.283Z,99.99
2017-03-09T03:36:09.324Z,99.99
2017-03-09T03:36:37.586Z,99.99
2017-03-09T03:37:05.817Z,99.99
2017-03-09T03:37:33.848Z,99.99
2017-03-09T03:38:01.995Z,99.99
2017-03-09T03:38:30.021Z,99.99
2017-03-09T03:38:58.143Z,99.99
2017-03-09T03:39:26.216Z,99.99
2017-03-09T03:39:54.352Z,99.99
2017-03-09T03:40:22.442Z,99.99
2017-03-09T03:40:50.657Z,99.99
2017-03-09T03:41:18.884Z,99.99
2017-03-09T03:41:47.213Z,99.99
2017-03-09T03:42:15.394Z,99.99
2017-03-09T03:42:43.538Z,99.99
2017-03-09T03:43:11.684Z,99.99
2017-03-09T03:43:39.869Z,99.99
2017-03-09T03:44:07.862Z,99.99
2017-03-09T03:44:36.093Z,99.99
2017-03-09T03:45:04.059Z,99.99
2017-03-09T03:45:32.097Z,99.99
2017-03-09T03:46:00.316Z,99.99
2017-03-09T03:46:28.457Z,99.99
2017-03-09T03:46:56.899Z,99.99
2017-03-09T03:47:25.172Z,99.99
2017-03-09T03:47:53.242Z,99.99
2017-03-09T03:48:21.405Z,99.99
2017-03-09T03:48:49.540Z,99.99
2017-03-09T03:49:17.670Z,99.99
2017-03-09T03:49:45.612Z,99.99
2017-03-09T03:50:13.724Z,99.99
2017-03-09T03:50:41.792Z,99.99
2017-03-09T03:51:09.888Z,99.99
2017-03-09T03:51:37.689Z,99.99
2017-03-09T03:52:06.004Z,99.99
2017-03-09T03:52:34.206Z,99.99
2017-03-09T03:53:02.340Z,99.99
2017-03-09T03:53:30.544Z,99.99
2017-03-09T03:53:58.575Z,99.99
2017-03-09T03:54:26.778Z,99.99
2017-03-09T03:54:54.921Z,99.99
2017-03-09T03:55:23.141Z,99.99
2017-03-09T03:55:51.284Z,99.99
2017-03-09T03:56:19.392Z,99.99
2017-03-09T03:56:47.586Z,99.99
2017-03-09T03:57:15.793Z,99.99
2017-03-09T03:57:43.851Z,99.99
2017-03-09T03:58:11.937Z,99.99
2017-03-09T03:58:39.999Z,99.99
2017-03-09T03:59:08.135Z,99.99
2017-03-09T03:59:36.396Z,99.99
2017-03-09T04:00:04.540Z,99.99
2017-03-09T04:00:32.752Z,99.99
2017-03-09T04:01:01.005Z,99.99
2017-03-09T04:01:28.866Z,99.99
2017-03-09T04:01:57.009Z,99.99
2017-03-09T04:02:25.476Z,99.99
2017-03-09T04:02:53.606Z,99.99
2017-03-09T04:03:21.598Z,99.99
2017-03-09T04:03:49.655Z,99.99
2017-03-09T04:04:17.791Z,99.99
2017-03-09T04:04:46.037Z,99.99
2017-03-09T04:05:14.237Z,99.99
2017-03-09T04:05:42.306Z,99.99
2017-03-09T04:06:10.428Z,99.99
2017-03-09T04:06:38.640Z,99.99
2017-03-09T04:07:06.950Z,99.99
2017-03-09T04:07:35.090Z,99.99
2017-03-09T04:08:03.033Z,99.99
2017-03-09T04:08:31.312Z,99.99
2017-03-09T04:08:59.381Z,99.99
2017-03-09T04:09:27.540Z,99.99
2017-03-09T04:09:55.480Z,99.99
2017-03-09T04:10:23.661Z,99.99
2017-03-09T04:10:51.794Z,99.99
2017-03-09T04:11:19.826Z,99.99
2017-03-09T04:11:47.914Z,99.99
2017-03-09T04:12:16.357Z,99.99
2017-03-09T04:12:44.421Z,99.99
2017-03-09T04:13:12.244Z,99.99
2017-03-09T04:13:40.445Z,99.99
2017-03-09T04:14:08.589Z,99.99
2017-03-09T04:14:36.801Z,99.99
2017-03-09T04:15:05.045Z,99.99
2017-03-09T04:15:33.029Z,99.99
2017-03-09T04:16:01.080Z,99.99
2017-03-09T04:16:29.197Z,99.99
2017-03-09T04:16:57.270Z,99.99
2017-03-09T04:17:25.569Z,99.99
2017-03-09T04:17:53.727Z,99.99
2017-03-09T04:18:21.877Z,99.99
2017-03-09T04:18:50.105Z,99.99
2017-03-09T04:19:18.339Z,99.99
2017-03-09T04:19:46.542Z,99.99
2017-03-09T04:20:14.506Z,99.99
2017-03-09T04:20:42.742Z,99.99
2017-03-09T04:21:10.917Z,99.99
2017-03-09T04:21:39.151Z,99.99
2017-03-09T04:22:07.199Z,99.99
2017-03-09T04:22:35.371Z,99.99
2017-03-09T04:23:03.613Z,99.99
2017-03-09T04:23:31.663Z,99.99
2017-03-09T04:23:59.750Z,99.99
2017-03-09T04:24:27.683Z,99.99
2017-03-09T04:24:55.838Z,99.99
2017-03-09T04:25:24.020Z,99.99
2017-03-09T04:25:51.958Z,99.99
2017-03-09T04:26:20.145Z,99.99
2017-03-09T04:26:48.259Z,99.99
2017-03-09T04:27:16.427Z,99.99
2017-03-09T04:27:44.644Z,99.99
2017-03-09T04:28:12.698Z,99.99
2017-03-09T04:28:40.631Z,99.99
2017-03-09T04:29:08.818Z,99.99
2017-03-09T04:29:37.035Z,99.99
2017-03-09T04:30:05.223Z,99.99
2017-03-09T04:30:33.429Z,99.99
2017-03-09T04:31:01.527Z,99.99
2017-03-09T04:31:29.743Z,99.99
2017-03-09T04:31:57.989Z,99.99
2017-03-09T04:32:25.998Z,99.99
2017-03-09T04:32:54.051Z,99.99
2017-03-09T04:33:22.295Z,99.99
2017-03-09T04:33:50.429Z,99.99
2017-03-09T04:34:18.459Z,99.99
2017-03-09T04:34:46.599Z,99.99
2017-03-09T04:35:14.705Z,99.99
2017-03-09T04:35:42.733Z,99.99
2017-03-09T04:36:10.820Z,99.99
2017-03-09T04:36:39.049Z,99.99
2017-03-09T04:37:07.185Z,99.99
2017-03-09T04:37:35.417Z,99.99
2017-03-09T04:38:03.613Z,99.99
2017-03-09T04:38:31.639Z,99.99
2017-03-09T04:38:59.841Z,99.99
2017-03-09T04:39:27.929Z,99.99
2017-03-09T04:39:56.035Z,99.99
2017-03-09T04:40:24.274Z,99.99
2017-03-09T04:40:52.335Z,99.99
2017-03-09T04:41:20.552Z,99.99
2017-03-09T04:41:48.850Z,99.99
2017-03-09T04:42:16.980Z,99.99
2017-03-09T04:42:45.169Z,99.99
2017-03-09T04:43:13.270Z,99.99
2017-03-09T04:43:41.430Z,99.99
2017-03-09T04:44:09.536Z,99.99
2017-03-09T04:44:37.680Z,99.99
2017-03-09T04:45:05.770Z,99.99
2017-03-09T04:45:33.924Z,99.99
2017-03-09T04:46:01.977Z,99.99
2017-03-09T04:46:30.118Z,99.99
2017-03-09T04:46:58.274Z,99.99
2017-03-09T04:47:26.306Z,99.99
2017-03-09T04:47:54.266Z,99.99
2017-03-09T04:48:22.518Z,99.99
2017-03-09T04:48:50.552Z,99.99
2017-03-09T04:49:18.454Z,99.99
2017-03-09T04:49:46.583Z,99.99
2017-03-09T04:50:14.706Z,99.99
2017-03-09T04:50:42.697Z,99.99
2017-03-09T04:51:10.764Z,99.99
2017-03-09T04:51:38.903Z,99.99
2017-03-09T04:52:07.023Z,99.99
2017-03-09T04:52:35.297Z,99.99
2017-03-09T04:53:03.283Z,99.99
2017-03-09T04:53:31.348Z,99.99
2017-03-09T04:53:59.447Z,99.99
2017-03-09T04:54:27.662Z,99.99
2017-03-09T04:54:55.854Z,99.99
2017-03-09T04:55:24.002Z,99.99
2017-03-09T04:55:52.181Z,99.99
2017-03-09T04:56:20.351Z,99.99
2017-03-09T04:56:48.461Z,99.99
2017-03-09T04:57:16.402Z,99.99
2017-03-09T04:57:44.854Z,99.99
2017-03-09T04:58:12.929Z,99.99
2017-03-09T04:58:41.120Z,99.99
2017-03-09T04:59:09.287Z,99.99
2017-03-09T04:59:37.390Z,99.99
2017-03-09T05:00:05.368Z,99.99
2017-03-09T05:00:33.532Z,99.99
2017-03-09T05:01:01.547Z,99.99
2017-03-09T05:01:29.674Z,99.99
2017-03-09T05:01:57.823Z,99.99
2017-03-09T05:02:26.056Z,99.99
2017-03-09T05:02:54.196Z,99.99
2017-03-09T05:03:22.240Z,99.99
2017-03-09T05:03:50.510Z,99.3
2017-03-09T05:04:18.645Z,99.74
2017-03-09T05:04:46.812Z,99.74
2017-03-09T05:05:14.932Z,99.35
2017-03-09T05:05:42.997Z,99.35
2017-03-09T05:06:11.230Z,99.6
2017-03-09T05:06:39.413Z,99.45
2017-03-09T05:07:07.423Z,99.02
2017-03-09T05:07:35.663Z,98.97
2017-03-09T05:08:03.699Z,99.11
2017-03-09T05:08:31.936Z,99.02
2017-03-09T05:09:00.042Z,99.16
2017-03-09T05:09:28.189Z,99.21
2017-03-09T05:09:56.439Z,98.92
2017-03-09T05:10:24.654Z,98.44
2017-03-09T05:10:52.887Z,98.44
2017-03-09T05:11:20.943Z,98.54
2017-03-09T05:11:48.926Z,98.05
2017-03-09T05:12:17.071Z,98.15
2017-03-09T05:12:45.261Z,98.15
2017-03-09T05:13:13.501Z,98.15
2017-03-09T05:13:41.640Z,97.96
2017-03-09T05:14:09.840Z,98.05
2017-03-09T05:14:38.002Z,98.05
2017-03-09T05:15:05.969Z,97.96
2017-03-09T05:15:34.070Z,97.96
2017-03-09T05:16:02.294Z,98.05
2017-03-09T05:16:30.355Z,98.15
2017-03-09T05:16:58.531Z,98.25
2017-03-09T05:17:26.676Z,98.25
2017-03-09T05:17:55.004Z,98.63
2017-03-09T05:18:23.215Z,98.63
2017-03-09T05:18:51.272Z,98.63
2017-03-09T05:19:19.255Z,98.44
2017-03-09T05:19:47.397Z,98.54
2017-03-09T05:20:15.502Z,99.02
2017-03-09T05:20:43.628Z,98.87
2017-03-09T05:21:11.780Z,98.87
2017-03-09T05:21:40.004Z,98.82
2017-03-09T05:22:08.125Z,98.73
2017-03-09T05:22:36.457Z,99.02
2017-03-09T05:23:04.682Z,99.21
2017-03-09T05:23:32.866Z,99.3
2017-03-09T05:24:00.989Z,99.02
2017-03-09T05:24:29.266Z,99.16
2017-03-09T05:24:57.261Z,99.69
2017-03-09T05:25:25.358Z,99.6
2017-03-09T05:25:53.551Z,99.64
2017-03-09T05:26:21.835Z,99.4
2017-03-09T05:26:50.047Z,99.64
2017-03-09T05:27:18.164Z,99.88
2017-03-09T05:27:46.278Z,99.84
2017-03-09T05:28:14.304Z,99.64
2017-03-09T05:28:42.509Z,99.64
2017-03-09T05:29:10.711Z,99.55
2017-03-09T05:29:38.983Z,99.74
2017-03-09T05:30:07.110Z,99.45
2017-03-09T05:30:35.185Z,99.45
2017-03-09T05:31:03.334Z,99.35
2017-03-09T05:31:31.527Z,99.35
2017-03-09T05:31:59.676Z,99.84
2017-03-09T05:32:27.820Z,99.84
2017-03-09T05:32:56.101Z,99.99
2017-03-09T05:33:24.046Z,99.99
2017-03-09T05:33:52.142Z,99.84
2017-03-09T05:34:20.366Z,99.74
2017-03-09T05:34:48.494Z,99.84
2017-03-09T05:35:16.714Z,99.84
2017-03-09T05:35:44.868Z,99.45
2017-03-09T05:36:13.101Z,99.55
2017-03-09T05:36:41.250Z,99.99
2017-03-09T05:37:09.431Z,99.74
2017-03-09T05:37:37.658Z,99.35
2017-03-09T05:38:05.894Z,99.64
2017-03-09T05:38:34.015Z,99.64
2017-03-09T05:39:02.081Z,99.64
2017-03-09T05:39:30.308Z,99.55
2017-03-09T05:39:58.478Z,99.45
2017-03-09T05:40:26.610Z,99.45
2017-03-09T05:40:54.849Z,99.64
2017-03-09T05:41:23.053Z,99.84
2017-03-09T05:41:51.147Z,99.64
2017-03-09T05:42:19.352Z,99.74
2017-03-09T05:42:47.574Z,99.55
2017-03-09T05:43:15.752Z,99.45
2017-03-09T05:43:43.945Z,99.45
2017-03-09T05:44:12.177Z,99.74
2017-03-09T05:44:40.319Z,99.64
2017-03-09T05:45:08.531Z,99.55
2017-03-09T05:45:36.822Z,99.07
2017-03-09T05:46:04.932Z,99.07
2017-03-09T05:46:32.875Z,99.16
2017-03-09T05:47:00.975Z,99.26
2017-03-09T05:47:29.120Z,99.07
2017-03-09T05:47:57.427Z,99.16
2017-03-09T05:48:25.594Z,99.26
2017-03-09T05:48:53.716Z,98.97
2017-03-09T05:49:21.919Z,99.02
2017-03-09T05:49:50.145Z,99.16
2017-03-09T05:50:18.377Z,99.4
2017-03-09T05:50:46.540Z,99.16
2017-03-09T05:51:14.755Z,99.21
2017-03-09T05:51:42.849Z,98.82
2017-03-09T05:52:10.896Z,98.87
2017-03-09T05:52:39.131Z,99.16
2017-03-09T05:53:07.444Z,99.11
2017-03-09T05:53:35.575Z,99.16
2017-03-09T05:54:03.692Z,99.07
2017-03-09T05:54:31.733Z,99.16
2017-03-09T05:54:59.845Z,99.35
2017-03-09T05:55:28.084Z,98.97
2017-03-09T05:55:56.016Z,98.73
2017-03-09T05:56:24.175Z,99.07
2017-03-09T05:56:52.381Z,99.02
2017-03-09T05:57:20.422Z,99.02
2017-03-09T05:57:48.639Z,98.97
2017-03-09T05:58:16.917Z,99.21
2017-03-09T05:58:44.915Z,98.77
2017-03-09T05:59:13.038Z,99.07
2017-03-09T05:59:41.282Z,99.35
2017-03-09T06:00:09.520Z,99.07
2017-03-09T06:00:37.699Z,99.16
2017-03-09T06:01:05.979Z,98.97
2017-03-09T06:01:34.039Z,98.97
2017-03-09T06:02:02.179Z,99.07
2017-03-09T06:02:30.352Z,98.87
2017-03-09T06:02:58.504Z,99.16